Archival Weather

Tcnl Rafael Pabon

Tcnl Rafael Pabon, Bolivia (SLVM)

Report from: Thursday, December 7, 2023 1:00 PM -04
Current time: Tuesday, April 23, 2024 4:29 AM -04

Current weather – Weather history – Daily summaries
Weather forecast

Temperature28.0°C (82.4°F)
Heat index30.8°C (87.5°F)
Dew point22.0°C (71.6°F)
Winds Calm
Visibility6.2 mi. (10 km)
Clouds Ceiling: Broken clouds 2,000 ft. (610 m)
Overcast 7,000 ft. (2,134 m)
Altimeter29.94 in.Hg (1014 mB)
Relative humidity70 %
Density altitude1,827 ft. (557 m)
Flight conditions Marginal Visual Meteorological Conditions
Raw dataSLVM 071700Z 00000KT 9999 BKN020 OVC070 28/22 Q1014
An error has occurred. This application may no longer respond until reloaded. Reload 🗙